sensor_id;sensor_type;location;lat;lon;timestamp;temperature;humidity
4985;DHT22;2509;49.902;8.600;2024-01-06T00:00:45;5.70;99.90
4985;DHT22;2509;49.902;8.600;2024-01-06T00:03:51;5.70;99.90
4985;DHT22;2509;49.902;8.600;2024-01-06T00:06:52;5.70;99.90
4985;DHT22;2509;49.902;8.600;2024-01-06T00:09:54;5.60;99.90
4985;DHT22;2509;49.902;8.600;2024-01-06T00:12:56;5.60;99.90
4985;DHT22;2509;49.902;8.600;2024-01-06T00:15:58;5.60;99.90
4985;DHT22;2509;49.902;8.600;2024-01-06T00:19:01;5.60;99.90
4985;DHT22;2509;49.902;8.600;2024-01-06T00:22:03;5.60;99.90
4985;DHT22;2509;49.902;8.600;2024-01-06T00:25:05;5.60;99.90
4985;DHT22;2509;49.902;8.600;2024-01-06T00:28:07;5.60;99.90
4985;DHT22;2509;49.902;8.600;2024-01-06T00:31:09;5.50;99.90
4985;DHT22;2509;49.902;8.600;2024-01-06T00:34:12;5.50;99.90
4985;DHT22;2509;49.902;8.600;2024-01-06T00:37:14;5.50;99.90
4985;DHT22;2509;49.902;8.600;2024-01-06T00:40:16;5.50;99.90
4985;DHT22;2509;49.902;8.600;2024-01-06T00:43:19;5.50;99.90
4985;DHT22;2509;49.902;8.600;2024-01-06T00:46:21;5.50;99.90
4985;DHT22;2509;49.902;8.600;2024-01-06T00:49:24;5.50;99.90
4985;DHT22;2509;49.902;8.600;2024-01-06T00:52:26;5.50;99.90
4985;DHT22;2509;49.902;8.600;2024-01-06T00:55:28;5.60;99.90
4985;DHT22;2509;49.902;8.600;2024-01-06T00:58:30;5.60;99.90
4985;DHT22;2509;49.902;8.600;2024-01-06T01:01:32;5.70;99.90
4985;DHT22;2509;49.902;8.600;2024-01-06T01:04:35;5.70;99.90
4985;DHT22;2509;49.902;8.600;2024-01-06T01:07:37;5.70;99.90
4985;DHT22;2509;49.902;8.600;2024-01-06T01:10:39;5.80;99.90
4985;DHT22;2509;49.902;8.600;2024-01-06T01:13:40;5.80;99.90
4985;DHT22;2509;49.902;8.600;2024-01-06T01:16:42;5.80;99.90
4985;DHT22;2509;49.902;8.600;2024-01-06T01:19:45;5.80;99.90
4985;DHT22;2509;49.902;8.600;2024-01-06T01:22:47;5.90;99.90
4985;DHT22;2509;49.902;8.600;2024-01-06T01:25:49;5.90;99.90
4985;DHT22;2509;49.902;8.600;2024-01-06T01:28:51;5.90;99.90
4985;DHT22;2509;49.902;8.600;2024-01-06T01:31:53;5.90;99.90
4985;DHT22;2509;49.902;8.600;2024-01-06T01:34:56;5.90;99.90
4985;DHT22;2509;49.902;8.600;2024-01-06T01:37:58;5.90;99.90
4985;DHT22;2509;49.902;8.600;2024-01-06T01:41:00;5.90;99.90
4985;DHT22;2509;49.902;8.600;2024-01-06T01:44:01;5.90;99.90
4985;DHT22;2509;49.902;8.600;2024-01-06T01:47:05;5.90;99.90
4985;DHT22;2509;49.902;8.600;2024-01-06T01:50:08;5.90;99.90
4985;DHT22;2509;49.902;8.600;2024-01-06T01:53:12;5.90;99.90
4985;DHT22;2509;49.902;8.600;2024-01-06T01:56:14;6.00;99.90
4985;DHT22;2509;49.902;8.600;2024-01-06T01:59:18;6.00;99.90
4985;DHT22;2509;49.902;8.600;2024-01-06T02:02:20;6.00;99.90
4985;DHT22;2509;49.902;8.600;2024-01-06T02:05:24;5.90;99.90
4985;DHT22;2509;49.902;8.600;2024-01-06T02:08:26;5.90;99.90
4985;DHT22;2509;49.902;8.600;2024-01-06T02:11:28;5.90;99.90
4985;DHT22;2509;49.902;8.600;2024-01-06T02:14:30;5.90;99.90
4985;DHT22;2509;49.902;8.600;2024-01-06T02:17:33;5.90;99.90
4985;DHT22;2509;49.902;8.600;2024-01-06T02:20:37;5.90;99.90
4985;DHT22;2509;49.902;8.600;2024-01-06T02:23:40;5.90;99.90
4985;DHT22;2509;49.902;8.600;2024-01-06T02:26:42;5.90;99.90
4985;DHT22;2509;49.902;8.600;2024-01-06T02:29:44;5.90;99.90
4985;DHT22;2509;49.902;8.600;2024-01-06T02:32:46;6.00;99.90
4985;DHT22;2509;49.902;8.600;2024-01-06T02:35:47;6.00;99.90
4985;DHT22;2509;49.902;8.600;2024-01-06T02:38:50;6.00;99.90
4985;DHT22;2509;49.902;8.600;2024-01-06T02:41:52;6.00;99.90
4985;DHT22;2509;49.902;8.600;2024-01-06T02:44:54;6.00;99.90
4985;DHT22;2509;49.902;8.600;2024-01-06T02:47:56;6.00;99.90
4985;DHT22;2509;49.902;8.600;2024-01-06T02:50:58;6.00;99.90
4985;DHT22;2509;49.902;8.600;2024-01-06T02:54:01;6.00;99.90
4985;DHT22;2509;49.902;8.600;2024-01-06T02:57:03;6.00;99.90
4985;DHT22;2509;49.902;8.600;2024-01-06T03:00:05;6.10;99.90
4985;DHT22;2509;49.902;8.600;2024-01-06T03:03:08;6.00;99.90
4985;DHT22;2509;49.902;8.600;2024-01-06T03:06:09;6.00;99.90
4985;DHT22;2509;49.902;8.600;2024-01-06T03:09:12;6.00;99.90
4985;DHT22;2509;49.902;8.600;2024-01-06T03:12:14;6.00;99.90
4985;DHT22;2509;49.902;8.600;2024-01-06T03:15:17;6.00;99.90
4985;DHT22;2509;49.902;8.600;2024-01-06T03:18:19;6.00;99.90
4985;DHT22;2509;49.902;8.600;2024-01-06T03:21:20;6.00;99.90
4985;DHT22;2509;49.902;8.600;2024-01-06T03:24:26;6.00;99.90
4985;DHT22;2509;49.902;8.600;2024-01-06T03:27:28;6.00;99.90
4985;DHT22;2509;49.902;8.600;2024-01-06T03:30:29;5.90;99.90
4985;DHT22;2509;49.902;8.600;2024-01-06T03:33:31;5.90;99.90
4985;DHT22;2509;49.902;8.600;2024-01-06T03:36:33;6.00;99.90
4985;DHT22;2509;49.902;8.600;2024-01-06T03:39:36;6.00;99.90
4985;DHT22;2509;49.902;8.600;2024-01-06T03:42:38;6.00;99.90
4985;DHT22;2509;49.902;8.600;2024-01-06T03:45:40;6.00;99.90
4985;DHT22;2509;49.902;8.600;2024-01-06T03:48:42;6.00;99.90
4985;DHT22;2509;49.902;8.600;2024-01-06T03:51:44;6.00;99.90
4985;DHT22;2509;49.902;8.600;2024-01-06T03:54:47;6.00;99.90
4985;DHT22;2509;49.902;8.600;2024-01-06T03:57:48;6.00;99.90
4985;DHT22;2509;49.902;8.600;2024-01-06T04:00:50;6.00;99.90
4985;DHT22;2509;49.902;8.600;2024-01-06T04:03:52;5.90;99.90
4985;DHT22;2509;49.902;8.600;2024-01-06T04:06:54;5.90;99.90
4985;DHT22;2509;49.902;8.600;2024-01-06T04:09:57;5.90;99.90
4985;DHT22;2509;49.902;8.600;2024-01-06T04:12:59;5.90;99.90
4985;DHT22;2509;49.902;8.600;2024-01-06T04:16:00;5.90;99.90
4985;DHT22;2509;49.902;8.600;2024-01-06T04:19:03;5.90;99.90
4985;DHT22;2509;49.902;8.600;2024-01-06T04:22:08;5.90;99.90
4985;DHT22;2509;49.902;8.600;2024-01-06T04:25:11;5.90;99.90
4985;DHT22;2509;49.902;8.600;2024-01-06T04:28:13;5.90;99.90
4985;DHT22;2509;49.902;8.600;2024-01-06T04:31:14;5.90;99.90
4985;DHT22;2509;49.902;8.600;2024-01-06T04:34:16;5.90;99.90
4985;DHT22;2509;49.902;8.600;2024-01-06T04:37:18;5.90;99.90
4985;DHT22;2509;49.902;8.600;2024-01-06T04:40:21;5.90;99.90
4985;DHT22;2509;49.902;8.600;2024-01-06T04:43:23;5.90;99.90
4985;DHT22;2509;49.902;8.600;2024-01-06T04:46:25;5.90;99.90
4985;DHT22;2509;49.902;8.600;2024-01-06T04:49:26;5.90;99.90
4985;DHT22;2509;49.902;8.600;2024-01-06T04:52:28;5.90;99.90
4985;DHT22;2509;49.902;8.600;2024-01-06T04:55:32;5.90;99.90
4985;DHT22;2509;49.902;8.600;2024-01-06T04:58:34;5.90;99.90
4985;DHT22;2509;49.902;8.600;2024-01-06T05:01:36;5.90;99.90
4985;DHT22;2509;49.902;8.600;2024-01-06T05:04:37;5.90;99.90
4985;DHT22;2509;49.902;8.600;2024-01-06T05:07:39;5.90;99.90
4985;DHT22;2509;49.902;8.600;2024-01-06T05:10:42;6.00;99.90
4985;DHT22;2509;49.902;8.600;2024-01-06T05:13:44;6.00;99.90
4985;DHT22;2509;49.902;8.600;2024-01-06T05:16:46;5.90;99.90
4985;DHT22;2509;49.902;8.600;2024-01-06T05:19:48;6.00;99.90
4985;DHT22;2509;49.902;8.600;2024-01-06T05:22:50;6.00;99.90
4985;DHT22;2509;49.902;8.600;2024-01-06T05:25:53;6.00;99.90
4985;DHT22;2509;49.902;8.600;2024-01-06T05:28:55;6.00;99.90
4985;DHT22;2509;49.902;8.600;2024-01-06T05:31:56;6.00;99.90
4985;DHT22;2509;49.902;8.600;2024-01-06T05:34:58;6.00;99.90
4985;DHT22;2509;49.902;8.600;2024-01-06T05:38:00;6.00;99.90
4985;DHT22;2509;49.902;8.600;2024-01-06T05:41:04;6.00;99.90
4985;DHT22;2509;49.902;8.600;2024-01-06T05:44:06;6.00;99.90
4985;DHT22;2509;49.902;8.600;2024-01-06T05:47:08;6.00;99.90
4985;DHT22;2509;49.902;8.600;2024-01-06T05:50:10;6.00;99.90
4985;DHT22;2509;49.902;8.600;2024-01-06T05:53:12;6.00;99.90
4985;DHT22;2509;49.902;8.600;2024-01-06T05:56:23;6.00;99.90
4985;DHT22;2509;49.902;8.600;2024-01-06T05:59:26;6.00;99.90
4985;DHT22;2509;49.902;8.600;2024-01-06T06:02:27;6.00;99.90
4985;DHT22;2509;49.902;8.600;2024-01-06T06:05:29;6.00;99.90
4985;DHT22;2509;49.902;8.600;2024-01-06T06:08:31;6.00;99.90
4985;DHT22;2509;49.902;8.600;2024-01-06T06:11:34;6.00;99.90
4985;DHT22;2509;49.902;8.600;2024-01-06T06:14:36;6.00;99.90
4985;DHT22;2509;49.902;8.600;2024-01-06T06:17:39;6.00;99.90
4985;DHT22;2509;49.902;8.600;2024-01-06T06:20:41;6.00;99.90
4985;DHT22;2509;49.902;8.600;2024-01-06T06:23:44;6.00;99.90
4985;DHT22;2509;49.902;8.600;2024-01-06T06:26:47;6.00;99.90
4985;DHT22;2509;49.902;8.600;2024-01-06T06:29:49;6.00;99.90
4985;DHT22;2509;49.902;8.600;2024-01-06T06:32:51;6.00;99.90
4985;DHT22;2509;49.902;8.600;2024-01-06T06:35:52;6.00;99.90
4985;DHT22;2509;49.902;8.600;2024-01-06T06:38:54;6.00;99.90
4985;DHT22;2509;49.902;8.600;2024-01-06T06:41:59;6.10;99.90
4985;DHT22;2509;49.902;8.600;2024-01-06T06:45:05;6.00;99.90
4985;DHT22;2509;49.902;8.600;2024-01-06T06:48:07;6.00;99.90
4985;DHT22;2509;49.902;8.600;2024-01-06T06:51:08;6.00;99.90
4985;DHT22;2509;49.902;8.600;2024-01-06T06:54:11;6.00;99.90
4985;DHT22;2509;49.902;8.600;2024-01-06T06:57:15;6.00;99.90
4985;DHT22;2509;49.902;8.600;2024-01-06T07:00:17;6.00;99.90
4985;DHT22;2509;49.902;8.600;2024-01-06T07:03:19;6.00;99.90
4985;DHT22;2509;49.902;8.600;2024-01-06T07:06:21;6.00;99.90
4985;DHT22;2509;49.902;8.600;2024-01-06T07:09:23;6.00;99.90
4985;DHT22;2509;49.902;8.600;2024-01-06T07:12:26;6.00;99.90
4985;DHT22;2509;49.902;8.600;2024-01-06T07:15:28;6.00;99.90
4985;DHT22;2509;49.902;8.600;2024-01-06T07:18:30;6.00;99.90
4985;DHT22;2509;49.902;8.600;2024-01-06T07:21:32;6.00;99.90
4985;DHT22;2509;49.902;8.600;2024-01-06T07:24:33;6.00;99.90
4985;DHT22;2509;49.902;8.600;2024-01-06T07:27:38;6.10;99.90
4985;DHT22;2509;49.902;8.600;2024-01-06T07:30:40;6.10;99.90
4985;DHT22;2509;49.902;8.600;2024-01-06T07:33:41;6.10;99.90
4985;DHT22;2509;49.902;8.600;2024-01-06T07:36:43;6.10;99.90
4985;DHT22;2509;49.902;8.600;2024-01-06T07:39:45;6.10;99.90
4985;DHT22;2509;49.902;8.600;2024-01-06T07:42:48;6.10;99.90
4985;DHT22;2509;49.902;8.600;2024-01-06T07:45:50;6.10;99.90
4985;DHT22;2509;49.902;8.600;2024-01-06T07:48:51;6.10;99.90
4985;DHT22;2509;49.902;8.600;2024-01-06T07:51:53;6.10;99.90
4985;DHT22;2509;49.902;8.600;2024-01-06T07:54:55;6.10;99.90
4985;DHT22;2509;49.902;8.600;2024-01-06T07:57:58;6.10;99.90
4985;DHT22;2509;49.902;8.600;2024-01-06T08:01:00;6.10;99.90
4985;DHT22;2509;49.902;8.600;2024-01-06T08:04:02;6.10;99.90
4985;DHT22;2509;49.902;8.600;2024-01-06T08:07:04;6.10;99.90
4985;DHT22;2509;49.902;8.600;2024-01-06T08:10:06;6.10;99.90
4985;DHT22;2509;49.902;8.600;2024-01-06T08:13:10;6.10;99.90
4985;DHT22;2509;49.902;8.600;2024-01-06T08:16:13;6.10;99.90
4985;DHT22;2509;49.902;8.600;2024-01-06T08:19:15;6.10;99.90
4985;DHT22;2509;49.902;8.600;2024-01-06T08:22:16;6.10;99.90
4985;DHT22;2509;49.902;8.600;2024-01-06T08:25:18;6.20;99.90
4985;DHT22;2509;49.902;8.600;2024-01-06T08:28:21;6.20;99.90
4985;DHT22;2509;49.902;8.600;2024-01-06T08:31:23;6.20;99.90
4985;DHT22;2509;49.902;8.600;2024-01-06T08:34:25;6.20;99.90
4985;DHT22;2509;49.902;8.600;2024-01-06T08:37:27;6.20;99.90
4985;DHT22;2509;49.902;8.600;2024-01-06T08:40:29;6.10;99.90
4985;DHT22;2509;49.902;8.600;2024-01-06T08:43:32;6.10;99.90
4985;DHT22;2509;49.902;8.600;2024-01-06T08:46:34;6.00;99.90
4985;DHT22;2509;49.902;8.600;2024-01-06T08:49:35;6.00;99.90
4985;DHT22;2509;49.902;8.600;2024-01-06T08:52:37;6.00;99.90
4985;DHT22;2509;49.902;8.600;2024-01-06T08:55:39;6.00;99.90
4985;DHT22;2509;49.902;8.600;2024-01-06T08:58:42;6.00;99.90
4985;DHT22;2509;49.902;8.600;2024-01-06T09:01:44;6.00;99.90
4985;DHT22;2509;49.902;8.600;2024-01-06T09:04:46;6.00;99.90
4985;DHT22;2509;49.902;8.600;2024-01-06T09:07:47;6.00;99.90
4985;DHT22;2509;49.902;8.600;2024-01-06T09:10:50;6.10;99.90
4985;DHT22;2509;49.902;8.600;2024-01-06T09:13:57;6.10;99.90
4985;DHT22;2509;49.902;8.600;2024-01-06T09:16:59;6.10;99.90
4985;DHT22;2509;49.902;8.600;2024-01-06T09:20:01;6.10;99.90
4985;DHT22;2509;49.902;8.600;2024-01-06T09:23:03;6.10;99.90
4985;DHT22;2509;49.902;8.600;2024-01-06T09:26:05;6.10;99.90
4985;DHT22;2509;49.902;8.600;2024-01-06T09:29:08;6.10;99.90
4985;DHT22;2509;49.902;8.600;2024-01-06T09:32:10;6.10;99.90
4985;DHT22;2509;49.902;8.600;2024-01-06T09:35:13;6.20;99.90
4985;DHT22;2509;49.902;8.600;2024-01-06T09:38:15;6.20;99.90
4985;DHT22;2509;49.902;8.600;2024-01-06T09:41:18;6.30;99.90
4985;DHT22;2509;49.902;8.600;2024-01-06T09:44:22;6.40;99.90
4985;DHT22;2509;49.902;8.600;2024-01-06T09:47:26;6.40;99.90
4985;DHT22;2509;49.902;8.600;2024-01-06T09:50:30;6.40;99.90
4985;DHT22;2509;49.902;8.600;2024-01-06T09:53:34;6.50;99.90
4985;DHT22;2509;49.902;8.600;2024-01-06T09:56:39;6.40;99.90
4985;DHT22;2509;49.902;8.600;2024-01-06T09:59:44;6.50;99.90
4985;DHT22;2509;49.902;8.600;2024-01-06T10:02:46;6.50;99.90
4985;DHT22;2509;49.902;8.600;2024-01-06T10:05:49;6.60;99.90
4985;DHT22;2509;49.902;8.600;2024-01-06T10:08:52;6.60;99.90
4985;DHT22;2509;49.902;8.600;2024-01-06T10:11:55;6.60;99.90
4985;DHT22;2509;49.902;8.600;2024-01-06T10:14:59;6.60;99.90
4985;DHT22;2509;49.902;8.600;2024-01-06T10:18:00;6.60;99.90
4985;DHT22;2509;49.902;8.600;2024-01-06T10:21:04;6.60;99.90
4985;DHT22;2509;49.902;8.600;2024-01-06T10:24:08;6.60;99.90
4985;DHT22;2509;49.902;8.600;2024-01-06T10:27:10;6.60;99.90
4985;DHT22;2509;49.902;8.600;2024-01-06T10:30:13;6.60;99.90
4985;DHT22;2509;49.902;8.600;2024-01-06T10:33:19;6.60;99.90
4985;DHT22;2509;49.902;8.600;2024-01-06T10:36:22;6.60;99.90
4985;DHT22;2509;49.902;8.600;2024-01-06T10:39:25;6.60;99.90
4985;DHT22;2509;49.902;8.600;2024-01-06T10:42:29;6.60;99.90
4985;DHT22;2509;49.902;8.600;2024-01-06T10:45:32;6.60;99.90
4985;DHT22;2509;49.902;8.600;2024-01-06T10:48:35;6.60;99.90
4985;DHT22;2509;49.902;8.600;2024-01-06T10:51:38;6.60;99.90
4985;DHT22;2509;49.902;8.600;2024-01-06T10:54:41;6.70;99.90
4985;DHT22;2509;49.902;8.600;2024-01-06T10:57:43;6.80;99.90
4985;DHT22;2509;49.902;8.600;2024-01-06T11:00:47;6.90;99.90
4985;DHT22;2509;49.902;8.600;2024-01-06T11:03:49;7.00;99.90
4985;DHT22;2509;49.902;8.600;2024-01-06T11:06:51;7.20;99.90
4985;DHT22;2509;49.902;8.600;2024-01-06T11:09:56;7.30;99.90
4985;DHT22;2509;49.902;8.600;2024-01-06T11:13:09;7.40;99.90
4985;DHT22;2509;49.902;8.600;2024-01-06T11:16:33;7.50;99.90
4985;DHT22;2509;49.902;8.600;2024-01-06T11:19:45;7.50;99.90
4985;DHT22;2509;49.902;8.600;2024-01-06T11:22:48;7.50;99.90
4985;DHT22;2509;49.902;8.600;2024-01-06T11:25:50;7.50;99.90
4985;DHT22;2509;49.902;8.600;2024-01-06T11:28:54;7.50;99.90
4985;DHT22;2509;49.902;8.600;2024-01-06T11:32:20;7.60;99.90
4985;DHT22;2509;49.902;8.600;2024-01-06T11:35:22;7.60;99.90
4985;DHT22;2509;49.902;8.600;2024-01-06T11:38:24;7.70;99.90
4985;DHT22;2509;49.902;8.600;2024-01-06T11:41:47;7.80;99.90
4985;DHT22;2509;49.902;8.600;2024-01-06T11:44:50;7.90;99.90
4985;DHT22;2509;49.902;8.600;2024-01-06T11:47:55;7.90;99.90
4985;DHT22;2509;49.902;8.600;2024-01-06T11:50:57;7.90;99.90
4985;DHT22;2509;49.902;8.600;2024-01-06T11:54:00;8.00;99.90
4985;DHT22;2509;49.902;8.600;2024-01-06T11:57:02;8.00;99.90
4985;DHT22;2509;49.902;8.600;2024-01-06T12:00:05;8.00;99.90
4985;DHT22;2509;49.902;8.600;2024-01-06T12:03:08;8.00;99.90
4985;DHT22;2509;49.902;8.600;2024-01-06T12:06:10;8.00;99.90
4985;DHT22;2509;49.902;8.600;2024-01-06T12:09:13;8.00;99.90
4985;DHT22;2509;49.902;8.600;2024-01-06T12:12:16;7.90;99.90
4985;DHT22;2509;49.902;8.600;2024-01-06T12:15:18;7.80;99.90
4985;DHT22;2509;49.902;8.600;2024-01-06T12:18:21;7.80;99.90
4985;DHT22;2509;49.902;8.600;2024-01-06T12:21:24;7.80;99.90
4985;DHT22;2509;49.902;8.600;2024-01-06T12:24:27;7.80;99.90
4985;DHT22;2509;49.902;8.600;2024-01-06T12:27:30;7.80;99.90
4985;DHT22;2509;49.902;8.600;2024-01-06T12:30:33;7.90;99.90
4985;DHT22;2509;49.902;8.600;2024-01-06T12:33:37;7.90;99.90
4985;DHT22;2509;49.902;8.600;2024-01-06T12:36:39;7.90;99.90
4985;DHT22;2509;49.902;8.600;2024-01-06T12:39:42;7.90;99.90
4985;DHT22;2509;49.902;8.600;2024-01-06T12:42:45;7.90;99.90
4985;DHT22;2509;49.902;8.600;2024-01-06T12:45:47;7.80;99.90
4985;DHT22;2509;49.902;8.600;2024-01-06T12:48:54;7.80;99.90
4985;DHT22;2509;49.902;8.600;2024-01-06T12:51:56;7.80;99.90
4985;DHT22;2509;49.902;8.600;2024-01-06T12:54:58;7.80;99.90
4985;DHT22;2509;49.902;8.600;2024-01-06T12:57:59;7.80;99.90
4985;DHT22;2509;49.902;8.600;2024-01-06T13:01:04;7.80;99.90
4985;DHT22;2509;49.902;8.600;2024-01-06T13:04:07;7.80;99.90
4985;DHT22;2509;49.902;8.600;2024-01-06T13:07:09;7.80;99.90
4985;DHT22;2509;49.902;8.600;2024-01-06T13:10:11;7.90;99.90
4985;DHT22;2509;49.902;8.600;2024-01-06T13:13:13;7.90;99.90
4985;DHT22;2509;49.902;8.600;2024-01-06T13:16:15;7.80;99.90
4985;DHT22;2509;49.902;8.600;2024-01-06T13:19:18;7.80;99.90
4985;DHT22;2509;49.902;8.600;2024-01-06T13:22:21;7.90;99.90
4985;DHT22;2509;49.902;8.600;2024-01-06T13:25:23;7.90;99.90
4985;DHT22;2509;49.902;8.600;2024-01-06T13:28:25;7.90;99.90
4985;DHT22;2509;49.902;8.600;2024-01-06T13:31:27;7.90;99.90
4985;DHT22;2509;49.902;8.600;2024-01-06T13:34:30;8.00;99.90
4985;DHT22;2509;49.902;8.600;2024-01-06T13:37:33;8.00;99.90
4985;DHT22;2509;49.902;8.600;2024-01-06T13:40:34;8.00;99.90
4985;DHT22;2509;49.902;8.600;2024-01-06T13:43:36;8.00;99.90
4985;DHT22;2509;49.902;8.600;2024-01-06T13:46:38;8.00;99.90
4985;DHT22;2509;49.902;8.600;2024-01-06T13:49:42;8.00;99.90
4985;DHT22;2509;49.902;8.600;2024-01-06T13:52:44;8.00;99.90
4985;DHT22;2509;49.902;8.600;2024-01-06T13:55:46;7.90;99.90
4985;DHT22;2509;49.902;8.600;2024-01-06T13:58:48;7.90;99.90
4985;DHT22;2509;49.902;8.600;2024-01-06T14:01:51;7.90;99.90
4985;DHT22;2509;49.902;8.600;2024-01-06T14:04:55;8.00;99.90
4985;DHT22;2509;49.902;8.600;2024-01-06T14:07:56;7.90;99.90
4985;DHT22;2509;49.902;8.600;2024-01-06T14:10:58;7.90;99.90
4985;DHT22;2509;49.902;8.600;2024-01-06T14:14:00;7.90;99.90
4985;DHT22;2509;49.902;8.600;2024-01-06T14:17:02;7.80;99.90
4985;DHT22;2509;49.902;8.600;2024-01-06T14:20:07;7.80;99.90
4985;DHT22;2509;49.902;8.600;2024-01-06T14:23:09;7.80;99.90
4985;DHT22;2509;49.902;8.600;2024-01-06T14:26:11;7.80;99.90
4985;DHT22;2509;49.902;8.600;2024-01-06T14:29:13;7.70;99.90
4985;DHT22;2509;49.902;8.600;2024-01-06T14:32:16;7.60;99.90
4985;DHT22;2509;49.902;8.600;2024-01-06T14:35:20;7.50;99.90
4985;DHT22;2509;49.902;8.600;2024-01-06T14:38:22;7.50;99.90
4985;DHT22;2509;49.902;8.600;2024-01-06T14:41:23;7.60;99.90
4985;DHT22;2509;49.902;8.600;2024-01-06T14:44:25;7.60;99.90
4985;DHT22;2509;49.902;8.600;2024-01-06T14:47:29;7.50;99.90
4985;DHT22;2509;49.902;8.600;2024-01-06T14:50:34;7.50;99.90
4985;DHT22;2509;49.902;8.600;2024-01-06T14:53:36;7.50;99.90
4985;DHT22;2509;49.902;8.600;2024-01-06T14:56:38;7.50;99.90
4985;DHT22;2509;49.902;8.600;2024-01-06T14:59:40;7.50;99.90
4985;DHT22;2509;49.902;8.600;2024-01-06T15:02:43;7.50;99.90
4985;DHT22;2509;49.902;8.600;2024-01-06T15:05:47;7.50;99.90
4985;DHT22;2509;49.902;8.600;2024-01-06T15:08:49;7.50;99.90
4985;DHT22;2509;49.902;8.600;2024-01-06T15:12:04;7.50;99.90
4985;DHT22;2509;49.902;8.600;2024-01-06T15:15:13;7.40;99.90
4985;DHT22;2509;49.902;8.600;2024-01-06T15:18:15;7.40;99.90
4985;DHT22;2509;49.902;8.600;2024-01-06T15:21:18;7.40;99.90
4985;DHT22;2509;49.902;8.600;2024-01-06T15:24:23;7.40;99.90
4985;DHT22;2509;49.902;8.600;2024-01-06T15:27:25;7.30;99.90
4985;DHT22;2509;49.902;8.600;2024-01-06T15:30:27;7.30;99.90
4985;DHT22;2509;49.902;8.600;2024-01-06T15:33:28;7.20;99.90
4985;DHT22;2509;49.902;8.600;2024-01-06T15:36:31;7.20;99.90
4985;DHT22;2509;49.902;8.600;2024-01-06T15:39:33;7.10;99.90
4985;DHT22;2509;49.902;8.600;2024-01-06T15:42:35;7.00;99.90
4985;DHT22;2509;49.902;8.600;2024-01-06T15:45:37;7.00;99.90
4985;DHT22;2509;49.902;8.600;2024-01-06T15:48:39;7.00;99.90
4985;DHT22;2509;49.902;8.600;2024-01-06T15:51:42;6.90;99.90
4985;DHT22;2509;49.902;8.600;2024-01-06T15:54:44;6.90;99.90
4985;DHT22;2509;49.902;8.600;2024-01-06T15:57:46;6.90;99.90
4985;DHT22;2509;49.902;8.600;2024-01-06T16:00:48;6.90;99.90
4985;DHT22;2509;49.902;8.600;2024-01-06T16:03:50;6.90;99.90
4985;DHT22;2509;49.902;8.600;2024-01-06T16:06:53;6.90;99.90
4985;DHT22;2509;49.902;8.600;2024-01-06T16:09:55;6.90;99.90
4985;DHT22;2509;49.902;8.600;2024-01-06T16:12:57;6.90;99.90
4985;DHT22;2509;49.902;8.600;2024-01-06T16:16:00;6.80;99.90
4985;DHT22;2509;49.902;8.600;2024-01-06T16:19:02;6.80;99.90
4985;DHT22;2509;49.902;8.600;2024-01-06T16:22:06;6.70;99.90
4985;DHT22;2509;49.902;8.600;2024-01-06T16:25:08;6.70;99.90
4985;DHT22;2509;49.902;8.600;2024-01-06T16:28:10;6.70;99.90
4985;DHT22;2509;49.902;8.600;2024-01-06T16:31:23;6.60;99.90
4985;DHT22;2509;49.902;8.600;2024-01-06T16:34:47;6.60;99.90
4985;DHT22;2509;49.902;8.600;2024-01-06T16:38:07;6.60;99.90
4985;DHT22;2509;49.902;8.600;2024-01-06T16:41:09;6.50;99.90
4985;DHT22;2509;49.902;8.600;2024-01-06T16:44:11;6.50;99.90
4985;DHT22;2509;49.902;8.600;2024-01-06T16:47:13;6.40;99.90
4985;DHT22;2509;49.902;8.600;2024-01-06T16:50:14;6.40;99.90
4985;DHT22;2509;49.902;8.600;2024-01-06T16:53:17;6.30;99.90
4985;DHT22;2509;49.902;8.600;2024-01-06T16:56:19;6.30;99.90
4985;DHT22;2509;49.902;8.600;2024-01-06T16:59:21;6.30;99.90
4985;DHT22;2509;49.902;8.600;2024-01-06T17:02:23;6.30;99.90
4985;DHT22;2509;49.902;8.600;2024-01-06T17:05:25;6.30;99.90
4985;DHT22;2509;49.902;8.600;2024-01-06T17:08:28;6.30;99.90
4985;DHT22;2509;49.902;8.600;2024-01-06T17:11:29;6.30;99.90
4985;DHT22;2509;49.902;8.600;2024-01-06T17:14:32;6.20;99.90
4985;DHT22;2509;49.902;8.600;2024-01-06T17:17:34;6.20;99.90
4985;DHT22;2509;49.902;8.600;2024-01-06T17:20:37;6.20;99.90
4985;DHT22;2509;49.902;8.600;2024-01-06T17:23:41;6.20;99.90
4985;DHT22;2509;49.902;8.600;2024-01-06T17:26:43;6.20;99.90
4985;DHT22;2509;49.902;8.600;2024-01-06T17:29:45;6.20;99.90
4985;DHT22;2509;49.902;8.600;2024-01-06T17:32:47;6.20;99.90
4985;DHT22;2509;49.902;8.600;2024-01-06T17:35:49;6.20;99.90
4985;DHT22;2509;49.902;8.600;2024-01-06T17:38:52;6.20;99.90
4985;DHT22;2509;49.902;8.600;2024-01-06T17:41:53;6.20;99.90
4985;DHT22;2509;49.902;8.600;2024-01-06T17:44:55;6.20;99.90
4985;DHT22;2509;49.902;8.600;2024-01-06T17:47:58;6.30;99.90
4985;DHT22;2509;49.902;8.600;2024-01-06T17:51:00;6.20;99.90
4985;DHT22;2509;49.902;8.600;2024-01-06T17:54:03;6.20;99.90
4985;DHT22;2509;49.902;8.600;2024-01-06T17:57:05;6.20;99.90
4985;DHT22;2509;49.902;8.600;2024-01-06T18:00:07;6.20;99.90
4985;DHT22;2509;49.902;8.600;2024-01-06T18:03:09;6.20;99.90
4985;DHT22;2509;49.902;8.600;2024-01-06T18:06:11;6.20;99.90
4985;DHT22;2509;49.902;8.600;2024-01-06T18:09:14;6.20;99.90
4985;DHT22;2509;49.902;8.600;2024-01-06T18:12:19;6.10;99.90
4985;DHT22;2509;49.902;8.600;2024-01-06T18:15:21;6.10;99.90
4985;DHT22;2509;49.902;8.600;2024-01-06T18:18:23;6.10;99.90
4985;DHT22;2509;49.902;8.600;2024-01-06T18:21:25;6.10;99.90
4985;DHT22;2509;49.902;8.600;2024-01-06T18:24:28;6.10;99.90
4985;DHT22;2509;49.902;8.600;2024-01-06T18:27:31;6.10;99.90
4985;DHT22;2509;49.902;8.600;2024-01-06T18:30:33;6.10;99.90
4985;DHT22;2509;49.902;8.600;2024-01-06T18:33:34;6.10;99.90
4985;DHT22;2509;49.902;8.600;2024-01-06T18:36:36;6.00;99.90
4985;DHT22;2509;49.902;8.600;2024-01-06T18:39:39;6.00;99.90
4985;DHT22;2509;49.902;8.600;2024-01-06T18:42:41;6.00;99.90
4985;DHT22;2509;49.902;8.600;2024-01-06T18:45:43;6.00;99.90
4985;DHT22;2509;49.902;8.600;2024-01-06T18:48:44;5.90;99.90
4985;DHT22;2509;49.902;8.600;2024-01-06T18:51:46;5.90;99.90
4985;DHT22;2509;49.902;8.600;2024-01-06T18:54:49;5.90;99.90
4985;DHT22;2509;49.902;8.600;2024-01-06T18:57:51;5.90;99.90
4985;DHT22;2509;49.902;8.600;2024-01-06T19:00:53;5.90;99.90
4985;DHT22;2509;49.902;8.600;2024-01-06T19:03:54;5.90;99.90
4985;DHT22;2509;49.902;8.600;2024-01-06T19:06:56;5.90;99.90
4985;DHT22;2509;49.902;8.600;2024-01-06T19:09:59;6.00;99.90
4985;DHT22;2509;49.902;8.600;2024-01-06T19:13:02;6.00;99.90
4985;DHT22;2509;49.902;8.600;2024-01-06T19:16:08;6.00;99.90
4985;DHT22;2509;49.902;8.600;2024-01-06T19:19:10;6.00;99.90
4985;DHT22;2509;49.902;8.600;2024-01-06T19:22:12;6.00;99.90
4985;DHT22;2509;49.902;8.600;2024-01-06T19:25:15;6.00;99.90
4985;DHT22;2509;49.902;8.600;2024-01-06T19:28:18;6.00;99.90
4985;DHT22;2509;49.902;8.600;2024-01-06T19:31:19;6.00;99.90
4985;DHT22;2509;49.902;8.600;2024-01-06T19:34:21;6.00;99.90
4985;DHT22;2509;49.902;8.600;2024-01-06T19:37:23;6.00;99.90
4985;DHT22;2509;49.902;8.600;2024-01-06T19:40:26;6.00;99.90
4985;DHT22;2509;49.902;8.600;2024-01-06T19:43:28;6.00;99.90
4985;DHT22;2509;49.902;8.600;2024-01-06T19:46:29;6.00;99.90
4985;DHT22;2509;49.902;8.600;2024-01-06T19:49:31;6.00;99.90
4985;DHT22;2509;49.902;8.600;2024-01-06T19:52:33;6.00;99.90
4985;DHT22;2509;49.902;8.600;2024-01-06T19:55:36;6.00;99.90
4985;DHT22;2509;49.902;8.600;2024-01-06T19:58:38;6.00;99.90
4985;DHT22;2509;49.902;8.600;2024-01-06T20:01:40;6.00;99.90
4985;DHT22;2509;49.902;8.600;2024-01-06T20:04:42;6.00;99.90
4985;DHT22;2509;49.902;8.600;2024-01-06T20:07:43;5.90;99.90
4985;DHT22;2509;49.902;8.600;2024-01-06T20:10:47;5.90;99.90